Pagrindinis puslapis
METAR-TAF:

METAR-TAF

Oro uostai :

Hasvik, Norvegija

platuma: 70-29N, ilguma: 022-09E, Aukštis: 10 m

Dabartinis oras

Ataskaita buvo paskelbta 7 valandos ir 43 minutes, ne 19:50 UTC
Vėjas 7 kt iš Šiaurės
Temperatūra 9°C
Drėgmė 93%
Slėgis 1017 hPa
Matomumas 10 km arba daugiau
Išsisklaidę debesys ne aukštis 1400 ft
Su prošvaistėmis ne aukštis 1900 ft
Liūtis kaimynystėje

METAR: ENHK 231950Z 35007KT 9999 VCSH SCT014 BKN019 09/08 Q1017

Laikas: 05:33 (03:33 UTC)


TAF: trūkstamas

Orai ataskaitas ir orų prognozės (METAR, TAF).

turimą stotys yra geltonos ir raudonos taškus žemėlapyje.

Perkelti pele per norėdami pamatyti stoties vardą.

Tada spustelėkite, norėdami matyti oro stebėjimo ir prognozės.

Norėdami pakeisti žemėlapį: spustelėkite ant žalios mygtukų su juodo kryžiaus žemyn,; žalią mygtuką su brūkšneliu, jei norite nutolinti; arba žalių rodyklių gretimoms žemėlapius.


METAR-TAF: